logo meteosardegna

Diretta Meteo Figari, Franciavenerdì 12 agosto ore 04:00

Mappa
Sereno 16 °C Sereno 24 Ore: T.min 16 T.max 32
Ponente Nord Km/h 3.7 Punto di rugiada: 15 °C Umidità: 93% Visibilità: 10 Km
Il sole sorge alle: 06:27 Il sole tramonta alle: 20:29
12 Agosto 2022 04:00 tempo osservato: Sereno Sereno 16 93 1014 vento: Nord N 3.7
12 Agosto 2022 03:30 tempo osservato: Sereno Sereno 16 100 1014 vento: Nord N 0
12 Agosto 2022 03:00 tempo osservato: Sereno Sereno 17 93 1014 vento: Nord N 5.5
12 Agosto 2022 02:30 tempo osservato: Sereno Sereno 17 93 1014 vento: Nord N 1.8
12 Agosto 2022 02:00 tempo osservato: Sereno Sereno 17 93 1014 vento: Nord NE 7.4
12 Agosto 2022 01:30 tempo osservato: Sereno Sereno 17 93 1014 vento: Nord N 0
12 Agosto 2022 01:00 tempo osservato: Sereno Sereno 18 93 1014 vento: Nord N 5.5
12 Agosto 2022 00:30 tempo osservato: Sereno Sereno 18 93 1014 vento: Nord N 0
12 Agosto 2022 00:00 tempo osservato: Sereno Sereno 19 93 1014 vento: Nord N 5.5
11 Agosto 2022 23:30 tempo osservato: Sereno Sereno 18 93 1014 vento: Nord N 3.7
11 Agosto 2022 23:00 tempo osservato: Sereno Sereno 19 93 1014 vento: Nord N 5.5
11 Agosto 2022 22:30 tempo osservato: Sereno Sereno 20 93 1014 vento: Nord NE 7.4
11 Agosto 2022 22:00 tempo osservato: Sereno Sereno 20 93 1014 vento: Nord N 5.5
11 Agosto 2022 21:30 tempo osservato: Sereno Sereno 21 88 1014 vento: Nord N 3.7
11 Agosto 2022 21:00 tempo osservato: Sereno Sereno 22 88 1014 vento: Nord N 3.7
11 Agosto 2022 20:30 tempo osservato: Sereno Sereno 24 78 1014 vento: Nord N 5.5
11 Agosto 2022 20:00 tempo osservato: Sereno Sereno 27 65 1014 vento: Nord O/SO 7.4
11 Agosto 2022 19:30 tempo osservato: Sereno Sereno 29 54 1014 vento: Nord SO 7.4
11 Agosto 2022 19:00 tempo osservato: Sereno Sereno 28 58 1014 vento: Nord N 3.7
11 Agosto 2022 18:30 tempo osservato: Sereno Sereno 27 65 1014 vento: Nord N 3.7
11 Agosto 2022 18:00 tempo osservato: Sereno Sereno 26 69 1014 vento: Nord N 1.8
11 Agosto 2022 17:30 tempo osservato: Molto Nuvoloso Molto Nuvoloso 24 78 1015 vento: Nord N/NO 9.3
11 Agosto 2022 17:00 tempo osservato: Pioggia Pioggia 23 88 1014 vento: Nord N 5.5
11 Agosto 2022 16:30 tempo osservato: Sereno Sereno 23 83 1015 vento: Nord N 5.5
11 Agosto 2022 15:00 tempo osservato: Sereno Sereno 22 88 1016 vento: Nord N 7.4
11 Agosto 2022 14:30 tempo osservato: Temporale nelle vicinanze Temporale nelle vicinanze 22 83 1015 vento: Nord NE 14.8
11 Agosto 2022 14:00 tempo osservato: Temporale Temporale 23 88 1016 vento: Nord NE 11.1
11 Agosto 2022 13:30 tempo osservato: Temporale Temporale 23 88 1016 vento: Nord NE 16.7
11 Agosto 2022 13:00 tempo osservato: Temporale Temporale 30 51 1016 vento: Nord N/NE 14.8
11 Agosto 2022 12:30 tempo osservato: Nuvoloso Nuvoloso 30 55 1015 vento: Nord O 7.4
11 Agosto 2022 12:00 tempo osservato: Nuvoloso Nuvoloso 31 48 1016 vento: Nord SO 13
11 Agosto 2022 11:30 tempo osservato: Sereno Sereno 32 46 1016 vento: Nord SO 18.5
11 Agosto 2022 11:00 tempo osservato: Sereno Sereno 32 38 1016 vento: Nord N/NE 9.3
11 Agosto 2022 10:30 tempo osservato: Sereno Sereno 31 43 1016 vento: Nord N 9.3
11 Agosto 2022 10:00 tempo osservato: Sereno Sereno 31 43 1016 vento: Nord N 5.5
11 Agosto 2022 09:30 tempo osservato: Sereno Sereno 29 51 1016 vento: Nord N 3.7
11 Agosto 2022 09:00 tempo osservato: Sereno Sereno 27 57 1016 vento: Nord N 0
11 Agosto 2022 08:30 tempo osservato: Sereno Sereno 24 69 1016 vento: Nord N 1.8
11 Agosto 2022 08:00 tempo osservato: Sereno Sereno 21 82 1016 vento: Nord N 0
11 Agosto 2022 07:30 tempo osservato: Sereno Sereno 18 93 1015 vento: Nord N 3.7
11 Agosto 2022 07:00 tempo osservato: Sereno Sereno 17 93 1015 vento: Nord N 3.7
11 Agosto 2022 06:30 tempo osservato: Sereno Sereno 16 93 1015 vento: Nord E/NE 7.4
11 Agosto 2022 06:00 tempo osservato: Sereno Sereno 17 93 1015 vento: Nord N 5.5
11 Agosto 2022 05:30 tempo osservato: Sereno Sereno 17 93 1015 vento: Nord N 5.5
11 Agosto 2022 05:00 tempo osservato: Sereno Sereno 17 93 1015 vento: Nord N 5.5